St Louis Regional Airport Alton,St Louis US
ICAO: KALN
IATA: ALN
Category: Medium
Scheduled Services: No

Elevation: 544 ft
TransAlt. 18000 ft.

Airport Communications:
APP/DEP:124.2
ATIS:128
AWOS 3:128
CLNC DEL:120.2
CTAF:126
GND:120.2
RDO:122.05
REGIONAL TWR:126
UNICOM:122.95

KALN Zoom In..

Runways:

(A) RW 11 length 8099 ft width 150 ft
---- / hdg 114

(B) RW 17 length 6500 ft width 100 ft
---- / hdg 174

(C) RW 29 length 8099 ft width 150 ft
ILS 108.50 / hdg 294

(D) RW 35 length 6500 ft width 100 ft
---- / hdg 354

Location; KALN
Day. 21 / Time. 23.45 Zulu
* Altimeter: 29.85
* Temperature: 12° c. 53.6°f.
* Wind from: 150° Speed 14 kn.
Dewpoint: 12° c.
Visibility: 10 Statute Miles.
Clouds: Scattered 5000 ft.
Clouds: Broken 6500 ft.
Clouds: Broken 9000 ft.

KALN 212345Z 15014KT 10SM SCT050 BKN065 BKN090 12/12 A2985


Wind From 150°
Speed 14 kn.

jpsM music video
CHECK IT OUT

jpsM - It Moves..

 
jpsmedia.com for Web Design  worldairports.se 2018   terms of use